ZAP583 EGCC-EGKK
Flight info
| Callsign | ZAP583 |
|---|---|
| Flight time | 1h 5m |
| Altitude | 19000 |
| Route | LISTO L612 HON N859 KIDLI |
| Aircraft | A320/M-SDE3FGHIRWY/LB1 |
Departure
| Time | 2026-05-04 17:31 |
|---|---|
| Airport | Manchester Airport (EGCC) |
Arrival
| Time | 2026-05-04 18:37 |
|---|---|
| Airport | London Gatwick Airport (EGKK) |
| Time | Latitude | Longitude | Altitude | Speed | Heading |
|---|---|---|---|---|---|
| 2026-05-04 16:32 | 53.36799 | -2.29180 | 248 ft | 0 kts | 287° |
| 2026-05-04 17:19 | 53.36790 | -2.29142 | 248 ft | 4 kts | 290° |
| 2026-05-04 17:20 | 53.36800 | -2.29093 | 248 ft | 2 kts | 200° |
| 2026-05-04 17:20 | 53.36782 | -2.29104 | 248 ft | 0 kts | 200° |
| 2026-05-04 17:23 | 53.36762 | -2.29114 | 248 ft | 11 kts | 189° |
| 2026-05-04 17:23 | 53.36611 | -2.28856 | 248 ft | 17 kts | 129° |
| 2026-05-04 17:24 | 53.36552 | -2.28711 | 248 ft | 12 kts | 132° |
| 2026-05-04 17:24 | 53.36247 | -2.28307 | 248 ft | 20 kts | 140° |
| 2026-05-04 17:25 | 53.36151 | -2.28142 | 248 ft | 21 kts | 131° |
| 2026-05-04 17:25 | 53.36064 | -2.27999 | 248 ft | 0 kts | 134° |
| 2026-05-04 17:26 | 53.35998 | -2.27886 | 248 ft | 14 kts | 137° |
| 2026-05-04 17:27 | 53.35839 | -2.27786 | 248 ft | 13 kts | 133° |
| 2026-05-04 17:27 | 53.35693 | -2.27609 | 248 ft | 11 kts | 158° |
| 2026-05-04 17:28 | 53.35577 | -2.27465 | 256 ft | 2 kts | 143° |
| 2026-05-04 17:29 | 53.35305 | -2.27194 | 254 ft | 27 kts | 191° |
| 2026-05-04 17:29 | 53.35009 | -2.27322 | 239 ft | 12 kts | 217° |
| 2026-05-04 17:30 | 53.34972 | -2.27397 | 240 ft | 0 kts | 230° |
| 2026-05-04 17:31 | 53.34965 | -2.27411 | 240 ft | 11 kts | 230° |
| 2026-05-04 17:31 | 53.33095 | -2.31218 | 1630 ft | 201 kts | 233° |
| 2026-05-04 17:32 | 53.31732 | -2.35582 | 2745 ft | 239 kts | 273° |
| 2026-05-04 17:33 | 53.32914 | -2.43925 | 3985 ft | 262 kts | 248° |
| 2026-05-04 17:33 | 53.31747 | -2.46257 | 4005 ft | 264 kts | 213° |
| 2026-05-04 17:34 | 53.26598 | -2.44562 | 4009 ft | 270 kts | 150° |
| 2026-05-04 17:34 | 53.24967 | -2.43036 | 4008 ft | 269 kts | 152° |
| 2026-05-04 17:35 | 53.19949 | -2.38664 | 5287 ft | 274 kts | 153° |
| 2026-05-04 17:35 | 53.16534 | -2.35706 | 6873 ft | 279 kts | 153° |
| 2026-05-04 17:35 | 53.14800 | -2.34192 | 7587 ft | 283 kts | 153° |
| 2026-05-04 17:36 | 53.13050 | -2.32664 | 8314 ft | 287 kts | 153° |
| 2026-05-04 17:36 | 53.11257 | -2.31100 | 9511 ft | 290 kts | 153° |
| 2026-05-04 17:36 | 53.09439 | -2.29515 | 10489 ft | 304 kts | 153° |
| 2026-05-04 17:36 | 53.07487 | -2.27816 | 11012 ft | 330 kts | 153° |
| 2026-05-04 17:37 | 53.05384 | -2.25989 | 11594 ft | 349 kts | 153° |
| 2026-05-04 17:37 | 53.03202 | -2.24091 | 12513 ft | 357 kts | 153° |
| 2026-05-04 17:37 | 53.00990 | -2.22168 | 13539 ft | 362 kts | 153° |
| 2026-05-04 17:37 | 52.98743 | -2.20214 | 14500 ft | 367 kts | 153° |
| 2026-05-04 17:38 | 52.96473 | -2.18236 | 15465 ft | 370 kts | 153° |
| 2026-05-04 17:38 | 52.94175 | -2.16237 | 16394 ft | 374 kts | 153° |
| 2026-05-04 17:38 | 52.91861 | -2.14232 | 17314 ft | 378 kts | 153° |
| 2026-05-04 17:38 | 52.89511 | -2.12206 | 18250 ft | 383 kts | 153° |
| 2026-05-04 17:39 | 52.84775 | -2.08135 | 18990 ft | 387 kts | 153° |
| 2026-05-04 17:39 | 52.82349 | -2.06048 | 19059 ft | 404 kts | 153° |
| 2026-05-04 17:39 | 52.79776 | -2.03837 | 19062 ft | 425 kts | 153° |
| 2026-05-04 17:40 | 52.77127 | -2.01564 | 19060 ft | 431 kts | 153° |
| 2026-05-04 17:40 | 52.74459 | -1.99275 | 19050 ft | 433 kts | 154° |
| 2026-05-04 17:40 | 52.72686 | -1.97758 | 19053 ft | 432 kts | 154° |
| 2026-05-04 17:40 | 52.70016 | -1.95479 | 19054 ft | 432 kts | 154° |
| 2026-05-04 17:41 | 52.66482 | -1.92461 | 19054 ft | 432 kts | 154° |
| 2026-05-04 17:41 | 52.64678 | -1.90923 | 19054 ft | 432 kts | 154° |
| 2026-05-04 17:41 | 52.61148 | -1.87920 | 19054 ft | 431 kts | 154° |
| 2026-05-04 17:41 | 52.59338 | -1.86380 | 19056 ft | 431 kts | 154° |
| 2026-05-04 17:42 | 52.56702 | -1.84135 | 19053 ft | 431 kts | 154° |
| 2026-05-04 17:42 | 52.54030 | -1.81864 | 19054 ft | 431 kts | 154° |
| 2026-05-04 17:42 | 52.51364 | -1.79601 | 19054 ft | 431 kts | 154° |
| 2026-05-04 17:42 | 52.48693 | -1.77345 | 19059 ft | 431 kts | 154° |
| 2026-05-04 17:43 | 52.46027 | -1.75099 | 19065 ft | 431 kts | 154° |
| 2026-05-04 17:43 | 52.43360 | -1.72858 | 19066 ft | 431 kts | 154° |
| 2026-05-04 17:43 | 52.40700 | -1.70627 | 19066 ft | 430 kts | 154° |
| 2026-05-04 17:43 | 52.38036 | -1.68390 | 19065 ft | 430 kts | 154° |
| 2026-05-04 17:44 | 52.35336 | -1.66285 | 19062 ft | 429 kts | 160° |
| 2026-05-04 17:44 | 52.32507 | -1.64716 | 19063 ft | 428 kts | 163° |
| 2026-05-04 17:44 | 52.29668 | -1.63229 | 19061 ft | 428 kts | 163° |
| 2026-05-04 17:44 | 52.26830 | -1.61759 | 19057 ft | 428 kts | 163° |
| 2026-05-04 17:45 | 52.23990 | -1.60289 | 19062 ft | 428 kts | 163° |
| 2026-05-04 17:45 | 52.21147 | -1.58812 | 19064 ft | 428 kts | 163° |
| 2026-05-04 17:45 | 52.18314 | -1.57337 | 19065 ft | 427 kts | 163° |
| 2026-05-04 17:45 | 52.15488 | -1.55869 | 19064 ft | 427 kts | 163° |
| 2026-05-04 17:46 | 52.12685 | -1.54417 | 19063 ft | 427 kts | 163° |
| 2026-05-04 17:46 | 52.09850 | -1.52950 | 19061 ft | 427 kts | 163° |
| 2026-05-04 17:46 | 52.07022 | -1.51486 | 19059 ft | 427 kts | 163° |
| 2026-05-04 17:46 | 52.04185 | -1.50020 | 19057 ft | 427 kts | 163° |
| 2026-05-04 17:47 | 52.01355 | -1.48560 | 19040 ft | 427 kts | 163° |
| 2026-05-04 17:47 | 51.98548 | -1.47114 | 19039 ft | 427 kts | 163° |
| 2026-05-04 17:47 | 51.95712 | -1.45656 | 19030 ft | 427 kts | 163° |
| 2026-05-04 17:47 | 51.92876 | -1.44197 | 19027 ft | 427 kts | 163° |
| 2026-05-04 17:48 | 51.90050 | -1.42744 | 19026 ft | 420 kts | 163° |
| 2026-05-04 17:48 | 51.87359 | -1.41358 | 19027 ft | 392 kts | 163° |
| 2026-05-04 17:48 | 51.84816 | -1.40053 | 18746 ft | 379 kts | 163° |
| 2026-05-04 17:48 | 51.82272 | -1.38753 | 17501 ft | 389 kts | 163° |
| 2026-05-04 17:49 | 51.79670 | -1.37428 | 16165 ft | 400 kts | 163° |
| 2026-05-04 17:49 | 51.77022 | -1.35819 | 15113 ft | 404 kts | 155° |
| 2026-05-04 17:49 | 51.74664 | -1.33524 | 14641 ft | 393 kts | 148° |
| 2026-05-04 17:49 | 51.72401 | -1.31134 | 14399 ft | 386 kts | 148° |
| 2026-05-04 17:50 | 51.70147 | -1.28790 | 14159 ft | 385 kts | 148° |
| 2026-05-04 17:50 | 51.67892 | -1.26462 | 13924 ft | 385 kts | 148° |
| 2026-05-04 17:50 | 51.65637 | -1.24138 | 13664 ft | 384 kts | 148° |
| 2026-05-04 17:50 | 51.63393 | -1.21822 | 13397 ft | 382 kts | 148° |
| 2026-05-04 17:51 | 51.61151 | -1.19505 | 13129 ft | 380 kts | 148° |
| 2026-05-04 17:51 | 51.58931 | -1.17210 | 12858 ft | 379 kts | 149° |
| 2026-05-04 17:51 | 51.56724 | -1.14926 | 12606 ft | 377 kts | 148° |
| 2026-05-04 17:51 | 51.54538 | -1.12656 | 12356 ft | 373 kts | 148° |
| 2026-05-04 17:52 | 51.52363 | -1.10403 | 12092 ft | 370 kts | 148° |
| 2026-05-04 17:52 | 51.50203 | -1.08175 | 11837 ft | 368 kts | 148° |
| 2026-05-04 17:52 | 51.48056 | -1.05965 | 11587 ft | 366 kts | 148° |
| 2026-05-04 17:52 | 51.45915 | -1.03761 | 11333 ft | 364 kts | 148° |
| 2026-05-04 17:53 | 51.43789 | -1.01575 | 11081 ft | 362 kts | 149° |
| 2026-05-04 17:53 | 51.41676 | -0.99404 | 10830 ft | 360 kts | 149° |
| 2026-05-04 17:53 | 51.39572 | -0.97243 | 10559 ft | 357 kts | 148° |
| 2026-05-04 17:53 | 51.37492 | -0.95111 | 9864 ft | 351 kts | 149° |
| 2026-05-04 17:54 | 51.35520 | -0.93094 | 9706 ft | 330 kts | 148° |
| 2026-05-04 17:54 | 51.33613 | -0.91144 | 9577 ft | 312 kts | 149° |
| 2026-05-04 17:54 | 51.31852 | -0.89345 | 9438 ft | 297 kts | 148° |
| 2026-05-04 17:54 | 51.30158 | -0.87618 | 9277 ft | 285 kts | 148° |
| 2026-05-04 17:55 | 51.28499 | -0.85930 | 9041 ft | 281 kts | 148° |
| 2026-05-04 17:55 | 51.26850 | -0.84249 | 9020 ft | 282 kts | 148° |
| 2026-05-04 17:55 | 51.25201 | -0.82568 | 9024 ft | 281 kts | 148° |
| 2026-05-04 17:55 | 51.23549 | -0.80886 | 9029 ft | 282 kts | 148° |
| 2026-05-04 17:56 | 51.21897 | -0.79205 | 9031 ft | 281 kts | 148° |
| 2026-05-04 17:56 | 51.20250 | -0.77531 | 9028 ft | 281 kts | 148° |
| 2026-05-04 17:56 | 51.18614 | -0.75869 | 9030 ft | 282 kts | 148° |
| 2026-05-04 17:56 | 51.16951 | -0.74185 | 8983 ft | 280 kts | 148° |
| 2026-05-04 17:57 | 51.15312 | -0.72529 | 8577 ft | 278 kts | 148° |
| 2026-05-04 17:57 | 51.13679 | -0.70880 | 8146 ft | 278 kts | 148° |
| 2026-05-04 17:57 | 51.12044 | -0.69226 | 7745 ft | 277 kts | 147° |
| 2026-05-04 17:57 | 51.10420 | -0.67580 | 7357 ft | 276 kts | 147° |
| 2026-05-04 17:58 | 51.08805 | -0.65944 | 7055 ft | 273 kts | 147° |
| 2026-05-04 17:58 | 51.07220 | -0.64342 | 7018 ft | 275 kts | 147° |
| 2026-05-04 17:58 | 51.05826 | -0.62573 | 7020 ft | 276 kts | 134° |
| 2026-05-04 17:58 | 51.04664 | -0.60149 | 7028 ft | 276 kts | 120° |
| 2026-05-04 17:59 | 51.03802 | -0.57426 | 7014 ft | 276 kts | 116° |
| 2026-05-04 17:59 | 51.02949 | -0.54686 | 7021 ft | 276 kts | 116° |
| 2026-05-04 17:59 | 51.01237 | -0.49221 | 7007 ft | 276 kts | 116° |
| 2026-05-04 18:00 | 51.00377 | -0.46485 | 7014 ft | 276 kts | 116° |
| 2026-05-04 18:00 | 50.99518 | -0.43757 | 7009 ft | 276 kts | 116° |
| 2026-05-04 18:00 | 50.98659 | -0.41033 | 7011 ft | 276 kts | 116° |
| 2026-05-04 18:00 | 50.97796 | -0.38299 | 7015 ft | 276 kts | 116° |
| 2026-05-04 18:01 | 50.96937 | -0.35574 | 7009 ft | 276 kts | 116° |
| 2026-05-04 18:01 | 50.96074 | -0.32841 | 7002 ft | 276 kts | 116° |
| 2026-05-04 18:01 | 50.95210 | -0.30111 | 7001 ft | 276 kts | 116° |
| 2026-05-04 18:02 | 50.93493 | -0.24696 | 7000 ft | 276 kts | 116° |
| 2026-05-04 18:02 | 50.92644 | -0.21962 | 6999 ft | 276 kts | 112° |
| 2026-05-04 18:02 | 50.92317 | -0.18986 | 7002 ft | 276 kts | 85° |
| 2026-05-04 18:02 | 50.92888 | -0.16130 | 7008 ft | 276 kts | 58° |
| 2026-05-04 18:03 | 50.94236 | -0.14005 | 7003 ft | 276 kts | 30° |
| 2026-05-04 18:03 | 50.96054 | -0.13114 | 7003 ft | 276 kts | 2° |
| 2026-05-04 18:03 | 50.97922 | -0.13660 | 7004 ft | 276 kts | 335° |
| 2026-05-04 18:03 | 50.99422 | -0.15529 | 7003 ft | 276 kts | 307° |
| 2026-05-04 18:04 | 51.00200 | -0.18278 | 7002 ft | 276 kts | 279° |
| 2026-05-04 18:04 | 51.00358 | -0.21314 | 6925 ft | 275 kts | 272° |
| 2026-05-04 18:04 | 51.00455 | -0.27360 | 6155 ft | 273 kts | 271° |
| 2026-05-04 18:05 | 51.00485 | -0.30366 | 5759 ft | 272 kts | 271° |
| 2026-05-04 18:05 | 51.00510 | -0.33363 | 5379 ft | 270 kts | 271° |
| 2026-05-04 18:05 | 51.00521 | -0.36345 | 4988 ft | 270 kts | 271° |
| 2026-05-04 18:05 | 51.00528 | -0.39318 | 4617 ft | 269 kts | 271° |
| 2026-05-04 18:06 | 51.00537 | -0.45232 | 3846 ft | 267 kts | 271° |
| 2026-05-04 18:06 | 51.00537 | -0.48180 | 3475 ft | 266 kts | 271° |
| 2026-05-04 18:06 | 51.00533 | -0.51111 | 3120 ft | 265 kts | 271° |
| 2026-05-04 18:07 | 51.00727 | -0.53939 | 2999 ft | 261 kts | 291° |
| 2026-05-04 18:07 | 51.01707 | -0.56304 | 3019 ft | 258 kts | 320° |
| 2026-05-04 18:07 | 51.03271 | -0.57581 | 3023 ft | 254 kts | 349° |
| 2026-05-04 18:07 | 51.05035 | -0.57802 | 3032 ft | 254 kts | 0° |
| 2026-05-04 18:08 | 51.06773 | -0.57509 | 3016 ft | 249 kts | 20° |
| 2026-05-04 18:08 | 51.08127 | -0.56026 | 3025 ft | 232 kts | 51° |
| 2026-05-04 18:08 | 51.08964 | -0.53939 | 3010 ft | 216 kts | 60° |
| 2026-05-04 18:08 | 51.09657 | -0.51923 | 3013 ft | 200 kts | 61° |
| 2026-05-04 18:09 | 51.10758 | -0.48128 | 2975 ft | 184 kts | 75° |
| 2026-05-04 18:09 | 51.11310 | -0.44176 | 3038 ft | 182 kts | 76° |
| 2026-05-04 18:10 | 51.11585 | -0.42212 | 2902 ft | 182 kts | 76° |
| 2026-05-04 18:10 | 51.11860 | -0.40251 | 2695 ft | 181 kts | 76° |
| 2026-05-04 18:10 | 51.12133 | -0.38298 | 2463 ft | 181 kts | 76° |
| 2026-05-04 18:10 | 51.12406 | -0.36352 | 2220 ft | 180 kts | 76° |
| 2026-05-04 18:11 | 51.12677 | -0.34411 | 1977 ft | 180 kts | 76° |
| 2026-05-04 18:11 | 51.12947 | -0.32473 | 1737 ft | 179 kts | 76° |
| 2026-05-04 18:11 | 51.13217 | -0.30541 | 1481 ft | 179 kts | 76° |
| 2026-05-04 18:11 | 51.13485 | -0.28613 | 1245 ft | 177 kts | 76° |
| 2026-05-04 18:12 | 51.13750 | -0.26707 | 1004 ft | 177 kts | 76° |
| 2026-05-04 18:12 | 51.14015 | -0.24799 | 768 ft | 177 kts | 77° |
| 2026-05-04 18:12 | 51.14273 | -0.22788 | 1312 ft | 202 kts | 78° |
| 2026-05-04 18:12 | 51.14549 | -0.20526 | 1769 ft | 209 kts | 78° |
| 2026-05-04 18:13 | 51.14805 | -0.18316 | 1943 ft | 188 kts | 78° |
| 2026-05-04 18:13 | 51.15023 | -0.16350 | 2004 ft | 176 kts | 78° |
| 2026-05-04 18:13 | 51.15444 | -0.12584 | 2008 ft | 173 kts | 78° |
| 2026-05-04 18:14 | 51.15651 | -0.10725 | 2012 ft | 173 kts | 78° |
| 2026-05-04 18:14 | 51.15861 | -0.08840 | 2007 ft | 173 kts | 78° |
| 2026-05-04 18:14 | 51.16070 | -0.06949 | 2007 ft | 173 kts | 78° |
| 2026-05-04 18:15 | 51.16487 | -0.03184 | 2010 ft | 172 kts | 78° |
| 2026-05-04 18:15 | 51.16908 | 0.00573 | 2019 ft | 171 kts | 78° |
| 2026-05-04 18:15 | 51.17123 | 0.02440 | 2017 ft | 171 kts | 78° |
| 2026-05-04 18:16 | 51.17336 | 0.04302 | 2017 ft | 171 kts | 78° |
| 2026-05-04 18:16 | 51.17550 | 0.06167 | 2019 ft | 171 kts | 78° |
| 2026-05-04 18:16 | 51.17763 | 0.08025 | 2016 ft | 171 kts | 78° |
| 2026-05-04 18:17 | 51.18062 | 0.11758 | 2120 ft | 172 kts | 103° |
| 2026-05-04 18:17 | 51.17394 | 0.13332 | 2385 ft | 180 kts | 144° |
| 2026-05-04 18:17 | 51.15053 | 0.14776 | 2892 ft | 187 kts | 161° |
| 2026-05-04 18:18 | 51.13809 | 0.15371 | 2991 ft | 186 kts | 161° |
| 2026-05-04 18:18 | 51.12566 | 0.15956 | 3002 ft | 186 kts | 161° |
| 2026-05-04 18:18 | 51.11325 | 0.16537 | 3013 ft | 185 kts | 161° |
| 2026-05-04 18:18 | 51.10108 | 0.17106 | 3018 ft | 185 kts | 161° |
| 2026-05-04 18:19 | 51.07634 | 0.18261 | 3017 ft | 185 kts | 161° |
| 2026-05-04 18:19 | 51.06403 | 0.18829 | 3019 ft | 185 kts | 161° |
| 2026-05-04 18:19 | 51.05154 | 0.19385 | 3011 ft | 186 kts | 168° |
| 2026-05-04 18:20 | 51.03894 | 0.19100 | 3011 ft | 187 kts | 210° |
| 2026-05-04 18:20 | 51.03050 | 0.17594 | 3014 ft | 186 kts | 251° |
| 2026-05-04 18:20 | 51.02762 | 0.15589 | 3027 ft | 186 kts | 264° |
| 2026-05-04 18:20 | 51.02610 | 0.13554 | 3019 ft | 186 kts | 266° |
| 2026-05-04 18:21 | 51.02480 | 0.11510 | 3017 ft | 186 kts | 266° |
| 2026-05-04 18:21 | 51.02354 | 0.09467 | 3020 ft | 186 kts | 266° |
| 2026-05-04 18:21 | 51.02230 | 0.07422 | 3012 ft | 186 kts | 266° |
| 2026-05-04 18:21 | 51.02106 | 0.05389 | 3017 ft | 186 kts | 266° |
| 2026-05-04 18:22 | 51.01985 | 0.03345 | 3015 ft | 186 kts | 266° |
| 2026-05-04 18:22 | 51.01862 | 0.01304 | 3010 ft | 185 kts | 266° |
| 2026-05-04 18:22 | 51.01736 | -0.00739 | 3014 ft | 186 kts | 266° |
| 2026-05-04 18:22 | 51.01611 | -0.02791 | 3009 ft | 187 kts | 266° |
| 2026-05-04 18:23 | 51.01486 | -0.04822 | 3014 ft | 186 kts | 266° |
| 2026-05-04 18:23 | 51.01359 | -0.06870 | 3015 ft | 187 kts | 266° |
| 2026-05-04 18:23 | 51.01231 | -0.08918 | 3015 ft | 187 kts | 266° |
| 2026-05-04 18:23 | 51.01102 | -0.10973 | 3011 ft | 187 kts | 266° |
| 2026-05-04 18:24 | 51.00969 | -0.13030 | 3015 ft | 187 kts | 266° |
| 2026-05-04 18:24 | 51.00838 | -0.15090 | 3014 ft | 188 kts | 266° |
| 2026-05-04 18:24 | 51.00706 | -0.17143 | 3014 ft | 187 kts | 266° |
| 2026-05-04 18:24 | 51.00575 | -0.19199 | 3005 ft | 187 kts | 266° |
| 2026-05-04 18:25 | 51.00444 | -0.21253 | 3002 ft | 187 kts | 266° |
| 2026-05-04 18:25 | 51.00313 | -0.23305 | 3012 ft | 186 kts | 266° |
| 2026-05-04 18:25 | 51.00183 | -0.25352 | 3008 ft | 187 kts | 266° |
| 2026-05-04 18:25 | 51.00051 | -0.27413 | 3013 ft | 187 kts | 266° |
| 2026-05-04 18:26 | 50.99921 | -0.29465 | 3012 ft | 187 kts | 266° |
| 2026-05-04 18:26 | 50.99835 | -0.30827 | 3010 ft | 187 kts | 266° |
| 2026-05-04 18:26 | 50.99707 | -0.32880 | 3010 ft | 187 kts | 266° |
| 2026-05-04 18:26 | 50.99580 | -0.34935 | 3001 ft | 187 kts | 266° |
| 2026-05-04 18:27 | 50.99451 | -0.36989 | 3008 ft | 187 kts | 266° |
| 2026-05-04 18:27 | 50.99325 | -0.39043 | 3010 ft | 187 kts | 266° |
| 2026-05-04 18:27 | 50.99196 | -0.41089 | 3016 ft | 187 kts | 266° |
| 2026-05-04 18:27 | 50.99068 | -0.43145 | 3016 ft | 187 kts | 266° |
| 2026-05-04 18:28 | 50.98937 | -0.45194 | 3017 ft | 187 kts | 266° |
| 2026-05-04 18:28 | 50.98809 | -0.47251 | 3016 ft | 187 kts | 267° |
| 2026-05-04 18:28 | 50.99014 | -0.49226 | 3003 ft | 181 kts | 304° |
| 2026-05-04 18:28 | 50.99939 | -0.50474 | 3016 ft | 175 kts | 341° |
| 2026-05-04 18:29 | 51.01109 | -0.51027 | 3006 ft | 175 kts | 349° |
| 2026-05-04 18:29 | 51.02299 | -0.51435 | 3018 ft | 175 kts | 351° |
| 2026-05-04 18:29 | 51.03492 | -0.51819 | 3021 ft | 175 kts | 351° |
| 2026-05-04 18:29 | 51.04687 | -0.52199 | 3020 ft | 175 kts | 351° |
| 2026-05-04 18:30 | 51.07061 | -0.52921 | 3004 ft | 174 kts | 357° |
| 2026-05-04 18:30 | 51.08186 | -0.52444 | 3012 ft | 170 kts | 38° |
| 2026-05-04 18:30 | 51.09036 | -0.51117 | 3023 ft | 171 kts | 49° |
| 2026-05-04 18:31 | 51.09796 | -0.49655 | 3022 ft | 172 kts | 51° |
| 2026-05-04 18:31 | 51.10542 | -0.48171 | 3020 ft | 172 kts | 53° |
| 2026-05-04 18:31 | 51.10982 | -0.46500 | 3040 ft | 155 kts | 77° |
| 2026-05-04 18:31 | 51.11196 | -0.44951 | 3012 ft | 133 kts | 75° |
| 2026-05-04 18:32 | 51.11393 | -0.43559 | 2987 ft | 125 kts | 75° |
| 2026-05-04 18:32 | 51.11581 | -0.42223 | 2889 ft | 122 kts | 75° |
| 2026-05-04 18:32 | 51.11766 | -0.40913 | 2768 ft | 121 kts | 75° |
| 2026-05-04 18:32 | 51.11949 | -0.39609 | 2614 ft | 120 kts | 75° |
| 2026-05-04 18:33 | 51.12131 | -0.38308 | 2463 ft | 120 kts | 75° |
| 2026-05-04 18:33 | 51.12309 | -0.37037 | 2306 ft | 119 kts | 75° |
| 2026-05-04 18:33 | 51.12490 | -0.35747 | 2144 ft | 119 kts | 75° |
| 2026-05-04 18:33 | 51.12670 | -0.34461 | 1983 ft | 119 kts | 75° |
| 2026-05-04 18:34 | 51.12849 | -0.33178 | 1822 ft | 119 kts | 75° |
| 2026-05-04 18:34 | 51.13028 | -0.31896 | 1662 ft | 118 kts | 76° |
| 2026-05-04 18:34 | 51.13206 | -0.30615 | 1492 ft | 119 kts | 75° |
| 2026-05-04 18:34 | 51.13384 | -0.29342 | 1337 ft | 118 kts | 76° |
| 2026-05-04 18:35 | 51.13563 | -0.28056 | 1172 ft | 119 kts | 75° |
| 2026-05-04 18:35 | 51.13741 | -0.26776 | 1007 ft | 118 kts | 76° |
| 2026-05-04 18:35 | 51.13913 | -0.25491 | 847 ft | 119 kts | 76° |
| 2026-05-04 18:35 | 51.14090 | -0.24211 | 737 ft | 119 kts | 76° |
| 2026-05-04 18:36 | 51.14270 | -0.22921 | 543 ft | 118 kts | 75° |
| 2026-05-04 18:36 | 51.14447 | -0.21653 | 335 ft | 117 kts | 76° |
| 2026-05-04 18:36 | 51.14628 | -0.20386 | 239 ft | 117 kts | 75° |
| 2026-05-04 18:36 | 51.14788 | -0.19253 | 214 ft | 82 kts | 77° |
| 2026-05-04 18:37 | 51.14851 | -0.18789 | 206 ft | 18 kts | 78° |
| 2026-05-04 18:37 | 51.14936 | -0.18538 | 211 ft | 25 kts | 47° |
| 2026-05-04 18:37 | 51.15044 | -0.18315 | 207 ft | 24 kts | 51° |
| 2026-05-04 18:37 | 51.15109 | -0.18200 | 205 ft | 6 kts | 27° |
| 2026-05-04 18:38 | 51.15127 | -0.18195 | 211 ft | 0 kts | 1° |
| 2026-05-04 18:39 | 51.15130 | -0.18195 | 211 ft | 2 kts | 1° |
| 2026-05-04 18:39 | 51.15156 | -0.18201 | 207 ft | 7 kts | 349° |
| 2026-05-04 18:39 | 51.15208 | -0.18135 | 210 ft | 11 kts | 69° |
| 2026-05-04 18:39 | 51.15224 | -0.18102 | 208 ft | 6 kts | 33° |
| 2026-05-04 18:40 | 51.15287 | -0.18117 | 209 ft | 12 kts | 347° |
| 2026-05-04 18:40 | 51.15389 | -0.18150 | 205 ft | 17 kts | 348° |
| 2026-05-04 18:40 | 51.15521 | -0.18206 | 208 ft | 22 kts | 347° |
| 2026-05-04 18:40 | 51.15667 | -0.18206 | 205 ft | 15 kts | 40° |
| 2026-05-04 18:41 | 51.15683 | -0.18088 | 205 ft | 14 kts | 82° |
| 2026-05-04 18:41 | 51.15753 | -0.17968 | 209 ft | 12 kts | 33° |
| 2026-05-04 18:41 | 51.15774 | -0.17945 | 205 ft | 0 kts | 34° |